THY40H LIRF-LTFM
Flight info
| Callsign | THY40H |
|---|---|
| Flight time | 2h 1m |
| Altitude | 37000 |
| Route | OKUNO DCT TINIX DCT ATRUP DCT ENFAR DCT VELBA DCT AYTEK |
| Aircraft | A21N/M-SDE2E3FGHIRWXY/LB1 |
Departure
| Time | 2026-05-04 18:51 |
|---|---|
| Airport | Rome–Fiumicino Leonardo da Vinci International Airport (LIRF) |
Arrival
| Time | 2026-05-04 20:52 |
|---|---|
| Airport | İstanbul Airport (LTFM) |
| Time | Latitude | Longitude | Altitude | Speed | Heading |
|---|---|---|---|---|---|
| 2026-05-04 18:18 | 41.79749 | 12.24581 | 9 ft | 0 kts | 96° |
| 2026-05-04 18:34 | 41.79750 | 12.24570 | 9 ft | 2 kts | 96° |
| 2026-05-04 18:34 | 41.79752 | 12.24550 | 9 ft | 2 kts | 96° |
| 2026-05-04 18:35 | 41.79754 | 12.24530 | 9 ft | 2 kts | 96° |
| 2026-05-04 18:35 | 41.79755 | 12.24517 | 9 ft | 2 kts | 88° |
| 2026-05-04 18:35 | 41.79750 | 12.24498 | 9 ft | 2 kts | 51° |
| 2026-05-04 18:35 | 41.79738 | 12.24485 | 9 ft | 2 kts | 20° |
| 2026-05-04 18:36 | 41.79723 | 12.24483 | 9 ft | 2 kts | 349° |
| 2026-05-04 18:36 | 41.79716 | 12.24485 | 9 ft | 1 kts | 335° |
| 2026-05-04 18:36 | 41.79712 | 12.24488 | 10 ft | 0 kts | 339° |
| 2026-05-04 18:40 | 41.79720 | 12.24484 | 9 ft | 2 kts | 339° |
| 2026-05-04 18:40 | 41.79743 | 12.24472 | 9 ft | 4 kts | 339° |
| 2026-05-04 18:40 | 41.79782 | 12.24453 | 8 ft | 7 kts | 340° |
| 2026-05-04 18:41 | 41.79836 | 12.24428 | 7 ft | 9 kts | 340° |
| 2026-05-04 18:41 | 41.79900 | 12.24398 | 7 ft | 10 kts | 340° |
| 2026-05-04 18:41 | 41.79964 | 12.24397 | 7 ft | 9 kts | 39° |
| 2026-05-04 18:41 | 41.79997 | 12.24479 | 7 ft | 10 kts | 70° |
| 2026-05-04 18:42 | 41.80022 | 12.24573 | 7 ft | 10 kts | 69° |
| 2026-05-04 18:42 | 41.80048 | 12.24670 | 7 ft | 11 kts | 70° |
| 2026-05-04 18:42 | 41.80086 | 12.24761 | 7 ft | 11 kts | 31° |
| 2026-05-04 18:42 | 41.80163 | 12.24785 | 7 ft | 11 kts | 22° |
| 2026-05-04 18:43 | 41.80199 | 12.24868 | 7 ft | 10 kts | 85° |
| 2026-05-04 18:43 | 41.80203 | 12.24971 | 7 ft | 11 kts | 90° |
| 2026-05-04 18:43 | 41.80207 | 12.25077 | 7 ft | 11 kts | 75° |
| 2026-05-04 18:43 | 41.80233 | 12.25173 | 9 ft | 10 kts | 70° |
| 2026-05-04 18:44 | 41.80255 | 12.25257 | 10 ft | 8 kts | 71° |
| 2026-05-04 18:44 | 41.80268 | 12.25311 | 10 ft | 9 kts | 72° |
| 2026-05-04 18:44 | 41.80300 | 12.25426 | 10 ft | 10 kts | 69° |
| 2026-05-04 18:44 | 41.80327 | 12.25515 | 11 ft | 10 kts | 69° |
| 2026-05-04 18:45 | 41.80353 | 12.25611 | 10 ft | 11 kts | 70° |
| 2026-05-04 18:45 | 41.80380 | 12.25712 | 10 ft | 11 kts | 69° |
| 2026-05-04 18:45 | 41.80408 | 12.25816 | 10 ft | 12 kts | 70° |
| 2026-05-04 18:45 | 41.80433 | 12.25917 | 12 ft | 10 kts | 72° |
| 2026-05-04 18:46 | 41.80463 | 12.26003 | 14 ft | 9 kts | 65° |
| 2026-05-04 18:46 | 41.80489 | 12.26088 | 14 ft | 10 kts | 68° |
| 2026-05-04 18:46 | 41.80515 | 12.26179 | 13 ft | 11 kts | 71° |
| 2026-05-04 18:46 | 41.80541 | 12.26287 | 11 ft | 13 kts | 73° |
| 2026-05-04 18:47 | 41.80570 | 12.26412 | 10 ft | 14 kts | 69° |
| 2026-05-04 18:47 | 41.80604 | 12.26535 | 10 ft | 14 kts | 69° |
| 2026-05-04 18:47 | 41.80642 | 12.26670 | 7 ft | 16 kts | 67° |
| 2026-05-04 18:47 | 41.80683 | 12.26809 | 7 ft | 15 kts | 69° |
| 2026-05-04 18:48 | 41.80719 | 12.26948 | 7 ft | 15 kts | 70° |
| 2026-05-04 18:48 | 41.80757 | 12.27082 | 7 ft | 15 kts | 62° |
| 2026-05-04 18:48 | 41.80839 | 12.27128 | 7 ft | 13 kts | 339° |
| 2026-05-04 18:48 | 41.80887 | 12.27105 | 8 ft | 0 kts | 340° |
| 2026-05-04 18:49 | 41.80888 | 12.27104 | 8 ft | 1 kts | 340° |
| 2026-05-04 18:50 | 41.80924 | 12.27087 | 8 ft | 9 kts | 340° |
| 2026-05-04 18:50 | 41.80975 | 12.27043 | 9 ft | 8 kts | 288° |
| 2026-05-04 18:50 | 41.80965 | 12.26966 | 9 ft | 9 kts | 249° |
| 2026-05-04 18:50 | 41.80936 | 12.26860 | 7 ft | 22 kts | 250° |
| 2026-05-04 18:51 | 41.80792 | 12.26337 | 10 ft | 97 kts | 250° |
| 2026-05-04 18:51 | 41.80477 | 12.25189 | 11 ft | 161 kts | 249° |
| 2026-05-04 18:51 | 41.80068 | 12.23671 | 416 ft | 178 kts | 250° |
| 2026-05-04 18:51 | 41.79668 | 12.22115 | 1174 ft | 179 kts | 247° |
| 2026-05-04 18:52 | 41.79037 | 12.20735 | 1997 ft | 174 kts | 225° |
| 2026-05-04 18:52 | 41.78123 | 12.19633 | 2557 ft | 187 kts | 218° |
| 2026-05-04 18:52 | 41.77067 | 12.18480 | 3127 ft | 201 kts | 217° |
| 2026-05-04 18:52 | 41.75957 | 12.17317 | 3853 ft | 207 kts | 211° |
| 2026-05-04 18:53 | 41.74625 | 12.16749 | 4658 ft | 208 kts | 182° |
| 2026-05-04 18:53 | 41.73111 | 12.16795 | 5171 ft | 229 kts | 177° |
| 2026-05-04 18:53 | 41.71463 | 12.16908 | 5765 ft | 247 kts | 177° |
| 2026-05-04 18:53 | 41.69702 | 12.17022 | 6291 ft | 259 kts | 177° |
| 2026-05-04 18:54 | 41.67881 | 12.17126 | 6857 ft | 267 kts | 178° |
| 2026-05-04 18:54 | 41.66021 | 12.17223 | 7502 ft | 270 kts | 178° |
| 2026-05-04 18:54 | 41.64112 | 12.17316 | 8140 ft | 274 kts | 178° |
| 2026-05-04 18:54 | 41.62209 | 12.17408 | 8773 ft | 277 kts | 178° |
| 2026-05-04 18:55 | 41.60295 | 12.17499 | 9369 ft | 280 kts | 178° |
| 2026-05-04 18:55 | 41.56359 | 12.17685 | 10528 ft | 288 kts | 178° |
| 2026-05-04 18:55 | 41.54331 | 12.18000 | 10773 ft | 303 kts | 162° |
| 2026-05-04 18:56 | 41.52468 | 12.19440 | 11004 ft | 319 kts | 137° |
| 2026-05-04 18:56 | 41.51190 | 12.21912 | 11337 ft | 331 kts | 112° |
| 2026-05-04 18:56 | 41.50811 | 12.24917 | 11935 ft | 336 kts | 89° |
| 2026-05-04 18:56 | 41.51000 | 12.27984 | 12533 ft | 337 kts | 86° |
| 2026-05-04 18:57 | 41.51194 | 12.31114 | 13097 ft | 340 kts | 86° |
| 2026-05-04 18:57 | 41.51371 | 12.34248 | 13613 ft | 343 kts | 87° |
| 2026-05-04 18:57 | 41.51593 | 12.37410 | 14138 ft | 346 kts | 80° |
| 2026-05-04 18:57 | 41.52526 | 12.40392 | 14592 ft | 353 kts | 55° |
| 2026-05-04 18:58 | 41.54302 | 12.42652 | 15094 ft | 357 kts | 32° |
| 2026-05-04 18:58 | 41.56502 | 12.44084 | 15618 ft | 358 kts | 24° |
| 2026-05-04 18:58 | 41.58808 | 12.45451 | 16092 ft | 361 kts | 24° |
| 2026-05-04 18:58 | 41.61095 | 12.46824 | 16551 ft | 363 kts | 24° |
| 2026-05-04 18:59 | 41.63401 | 12.48227 | 17005 ft | 366 kts | 25° |
| 2026-05-04 18:59 | 41.65716 | 12.49649 | 17458 ft | 368 kts | 25° |
| 2026-05-04 18:59 | 41.68051 | 12.51090 | 17932 ft | 370 kts | 25° |
| 2026-05-04 18:59 | 41.70388 | 12.52537 | 18369 ft | 372 kts | 25° |
| 2026-05-04 19:00 | 41.72722 | 12.53987 | 18787 ft | 374 kts | 25° |
| 2026-05-04 19:00 | 41.75103 | 12.55468 | 19227 ft | 375 kts | 24° |
| 2026-05-04 19:00 | 41.77446 | 12.56926 | 19634 ft | 377 kts | 24° |
| 2026-05-04 19:00 | 41.79791 | 12.58524 | 20030 ft | 379 kts | 28° |
| 2026-05-04 19:01 | 41.82056 | 12.60328 | 20427 ft | 381 kts | 31° |
| 2026-05-04 19:01 | 41.84243 | 12.62309 | 20806 ft | 383 kts | 33° |
| 2026-05-04 19:01 | 41.86435 | 12.64368 | 21181 ft | 385 kts | 33° |
| 2026-05-04 19:01 | 41.88624 | 12.66437 | 21543 ft | 387 kts | 34° |
| 2026-05-04 19:02 | 41.90830 | 12.68521 | 21893 ft | 389 kts | 34° |
| 2026-05-04 19:02 | 41.93042 | 12.70614 | 22230 ft | 390 kts | 33° |
| 2026-05-04 19:02 | 41.95260 | 12.72706 | 22559 ft | 392 kts | 33° |
| 2026-05-04 19:02 | 41.97485 | 12.74804 | 22900 ft | 394 kts | 33° |
| 2026-05-04 19:03 | 41.99743 | 12.76937 | 23251 ft | 395 kts | 33° |
| 2026-05-04 19:03 | 42.01934 | 12.79120 | 23588 ft | 397 kts | 38° |
| 2026-05-04 19:03 | 42.03891 | 12.81743 | 23893 ft | 402 kts | 47° |
| 2026-05-04 19:03 | 42.05547 | 12.84827 | 24183 ft | 407 kts | 56° |
| 2026-05-04 19:04 | 42.06963 | 12.88122 | 24480 ft | 410 kts | 59° |
| 2026-05-04 19:04 | 42.08350 | 12.91493 | 24771 ft | 413 kts | 59° |
| 2026-05-04 19:04 | 42.09651 | 12.94918 | 25040 ft | 416 kts | 65° |
| 2026-05-04 19:04 | 42.10562 | 12.98671 | 25307 ft | 421 kts | 76° |
| 2026-05-04 19:05 | 42.10985 | 13.02565 | 25587 ft | 424 kts | 85° |
| 2026-05-04 19:05 | 42.11146 | 13.06515 | 25867 ft | 426 kts | 86° |
| 2026-05-04 19:05 | 42.11263 | 13.10514 | 26140 ft | 428 kts | 87° |
| 2026-05-04 19:05 | 42.11377 | 13.14490 | 26401 ft | 431 kts | 87° |
| 2026-05-04 19:06 | 42.11497 | 13.18546 | 26667 ft | 433 kts | 87° |
| 2026-05-04 19:06 | 42.11621 | 13.22564 | 26907 ft | 435 kts | 86° |
| 2026-05-04 19:06 | 42.11749 | 13.26619 | 27178 ft | 436 kts | 86° |
| 2026-05-04 19:06 | 42.11881 | 13.30718 | 27434 ft | 438 kts | 86° |
| 2026-05-04 19:07 | 42.12014 | 13.34817 | 27688 ft | 440 kts | 86° |
| 2026-05-04 19:07 | 42.12146 | 13.38912 | 27930 ft | 442 kts | 86° |
| 2026-05-04 19:07 | 42.12279 | 13.43060 | 28169 ft | 443 kts | 86° |
| 2026-05-04 19:07 | 42.12409 | 13.47163 | 28382 ft | 446 kts | 86° |
| 2026-05-04 19:08 | 42.12540 | 13.51343 | 28610 ft | 448 kts | 86° |
| 2026-05-04 19:08 | 42.12669 | 13.55516 | 28847 ft | 449 kts | 86° |
| 2026-05-04 19:08 | 42.12799 | 13.59732 | 29068 ft | 451 kts | 86° |
| 2026-05-04 19:08 | 42.12928 | 13.63970 | 29298 ft | 453 kts | 86° |
| 2026-05-04 19:09 | 42.13054 | 13.68227 | 29512 ft | 455 kts | 87° |
| 2026-05-04 19:09 | 42.13179 | 13.72434 | 29720 ft | 457 kts | 87° |
| 2026-05-04 19:09 | 42.13304 | 13.76718 | 29949 ft | 458 kts | 87° |
| 2026-05-04 19:09 | 42.13428 | 13.81014 | 30172 ft | 460 kts | 87° |
| 2026-05-04 19:10 | 42.13550 | 13.85327 | 30381 ft | 461 kts | 86° |
| 2026-05-04 19:10 | 42.13670 | 13.89597 | 30603 ft | 462 kts | 87° |
| 2026-05-04 19:10 | 42.13789 | 13.93908 | 30826 ft | 464 kts | 86° |
| 2026-05-04 19:10 | 42.13903 | 13.98268 | 31050 ft | 465 kts | 88° |
| 2026-05-04 19:11 | 42.13864 | 14.02618 | 31273 ft | 466 kts | 91° |
| 2026-05-04 19:11 | 42.13726 | 14.06982 | 31470 ft | 468 kts | 91° |
| 2026-05-04 19:11 | 42.13569 | 14.11337 | 31675 ft | 469 kts | 91° |
| 2026-05-04 19:11 | 42.13415 | 14.15694 | 31939 ft | 469 kts | 91° |
| 2026-05-04 19:12 | 42.13267 | 14.20092 | 32225 ft | 468 kts | 91° |
| 2026-05-04 19:12 | 42.12987 | 14.28817 | 32754 ft | 467 kts | 91° |
| 2026-05-04 19:12 | 42.12852 | 14.33124 | 33004 ft | 467 kts | 91° |
| 2026-05-04 19:13 | 42.12714 | 14.37521 | 33249 ft | 466 kts | 90° |
| 2026-05-04 19:13 | 42.12577 | 14.41832 | 33499 ft | 466 kts | 90° |
| 2026-05-04 19:13 | 42.12439 | 14.46194 | 33745 ft | 465 kts | 90° |
| 2026-05-04 19:13 | 42.12300 | 14.50522 | 33999 ft | 465 kts | 90° |
| 2026-05-04 19:14 | 42.12159 | 14.54844 | 34244 ft | 464 kts | 90° |
| 2026-05-04 19:14 | 42.12015 | 14.59173 | 34472 ft | 464 kts | 90° |
| 2026-05-04 19:14 | 42.11872 | 14.63465 | 34678 ft | 463 kts | 90° |
| 2026-05-04 19:14 | 42.11727 | 14.67783 | 34879 ft | 463 kts | 91° |
| 2026-05-04 19:15 | 42.11579 | 14.72136 | 35051 ft | 463 kts | 91° |
| 2026-05-04 19:15 | 42.11430 | 14.76415 | 35216 ft | 463 kts | 91° |
| 2026-05-04 19:15 | 42.11279 | 14.80768 | 35378 ft | 464 kts | 91° |
| 2026-05-04 19:15 | 42.11127 | 14.85110 | 35517 ft | 464 kts | 91° |
| 2026-05-04 19:16 | 42.10975 | 14.89391 | 35867 ft | 465 kts | 91° |
| 2026-05-04 19:16 | 42.10661 | 14.98046 | 35896 ft | 466 kts | 91° |
| 2026-05-04 19:16 | 42.10502 | 15.02412 | 36016 ft | 467 kts | 90° |
| 2026-05-04 19:17 | 42.10339 | 15.06799 | 36151 ft | 467 kts | 90° |
| 2026-05-04 19:17 | 42.10177 | 15.11116 | 36266 ft | 468 kts | 90° |
| 2026-05-04 19:17 | 42.10012 | 15.15493 | 36366 ft | 469 kts | 90° |
| 2026-05-04 19:17 | 42.09844 | 15.19890 | 36468 ft | 469 kts | 90° |
| 2026-05-04 19:18 | 42.09675 | 15.24263 | 36574 ft | 470 kts | 90° |
| 2026-05-04 19:18 | 42.09504 | 15.28642 | 36686 ft | 470 kts | 90° |
| 2026-05-04 19:18 | 42.09331 | 15.33044 | 36782 ft | 471 kts | 90° |
| 2026-05-04 19:18 | 42.09158 | 15.37384 | 36885 ft | 472 kts | 90° |
| 2026-05-04 19:19 | 42.08982 | 15.41787 | 37007 ft | 472 kts | 90° |
| 2026-05-04 19:19 | 42.08622 | 15.50632 | 37087 ft | 473 kts | 90° |
| 2026-05-04 19:20 | 42.08257 | 15.59423 | 37088 ft | 473 kts | 90° |
| 2026-05-04 19:20 | 42.07882 | 15.68293 | 37074 ft | 473 kts | 90° |
| 2026-05-04 19:21 | 42.07504 | 15.77086 | 37073 ft | 473 kts | 90° |
| 2026-05-04 19:21 | 42.07117 | 15.85906 | 37076 ft | 473 kts | 90° |
| 2026-05-04 19:22 | 42.06726 | 15.94702 | 37079 ft | 474 kts | 90° |
| 2026-05-04 19:22 | 42.06327 | 16.03501 | 37082 ft | 473 kts | 90° |
| 2026-05-04 19:23 | 42.05919 | 16.12349 | 37080 ft | 473 kts | 90° |
| 2026-05-04 19:23 | 42.05508 | 16.21126 | 37080 ft | 473 kts | 90° |
| 2026-05-04 19:24 | 42.05085 | 16.29969 | 37078 ft | 473 kts | 90° |
| 2026-05-04 19:24 | 42.04662 | 16.38724 | 37074 ft | 473 kts | 90° |
| 2026-05-04 19:25 | 42.04228 | 16.47526 | 37077 ft | 472 kts | 89° |
| 2026-05-04 19:25 | 42.03788 | 16.56333 | 37080 ft | 472 kts | 89° |
| 2026-05-04 19:26 | 42.03345 | 16.65095 | 37080 ft | 473 kts | 90° |
| 2026-05-04 19:26 | 42.02892 | 16.73869 | 37079 ft | 473 kts | 90° |
| 2026-05-04 19:27 | 42.02434 | 16.82676 | 37078 ft | 474 kts | 90° |
| 2026-05-04 19:27 | 42.01965 | 16.91513 | 37080 ft | 474 kts | 90° |
| 2026-05-04 19:28 | 42.01490 | 17.00324 | 37082 ft | 473 kts | 90° |
| 2026-05-04 19:28 | 42.01010 | 17.09117 | 37081 ft | 472 kts | 90° |
| 2026-05-04 19:29 | 42.00528 | 17.17830 | 37083 ft | 472 kts | 90° |
| 2026-05-04 19:29 | 42.00035 | 17.26610 | 37084 ft | 472 kts | 90° |
| 2026-05-04 19:30 | 41.99535 | 17.35391 | 37094 ft | 472 kts | 90° |
| 2026-05-04 19:30 | 41.99029 | 17.44151 | 37092 ft | 472 kts | 89° |
| 2026-05-04 19:31 | 41.98518 | 17.52899 | 37095 ft | 472 kts | 89° |
| 2026-05-04 19:31 | 41.98000 | 17.61644 | 37101 ft | 472 kts | 89° |
| 2026-05-04 19:32 | 41.97474 | 17.70421 | 37104 ft | 471 kts | 90° |
| 2026-05-04 19:32 | 41.96941 | 17.79176 | 37108 ft | 470 kts | 90° |
| 2026-05-04 19:33 | 41.96408 | 17.87836 | 37106 ft | 469 kts | 90° |
| 2026-05-04 19:33 | 41.95864 | 17.96573 | 37119 ft | 469 kts | 90° |
| 2026-05-04 19:34 | 41.95316 | 18.05280 | 37114 ft | 469 kts | 90° |
| 2026-05-04 19:34 | 41.94761 | 18.13987 | 37122 ft | 470 kts | 90° |
| 2026-05-04 19:35 | 41.94197 | 18.22712 | 37121 ft | 470 kts | 90° |
| 2026-05-04 19:35 | 41.93632 | 18.31380 | 37115 ft | 469 kts | 90° |
| 2026-05-04 19:36 | 41.93057 | 18.40078 | 37114 ft | 468 kts | 90° |
| 2026-05-04 19:36 | 41.92476 | 18.48774 | 37120 ft | 468 kts | 90° |
| 2026-05-04 19:37 | 41.91890 | 18.57438 | 37114 ft | 468 kts | 90° |
| 2026-05-04 19:37 | 41.91298 | 18.66083 | 37121 ft | 467 kts | 90° |
| 2026-05-04 19:38 | 41.90696 | 18.74776 | 37125 ft | 466 kts | 90° |
| 2026-05-04 19:38 | 41.90094 | 18.83397 | 37116 ft | 467 kts | 90° |
| 2026-05-04 19:39 | 41.89481 | 18.92064 | 37112 ft | 466 kts | 90° |
| 2026-05-04 19:39 | 41.88865 | 19.00695 | 37118 ft | 466 kts | 90° |
| 2026-05-04 19:40 | 41.88245 | 19.09300 | 37123 ft | 466 kts | 90° |
| 2026-05-04 19:40 | 41.87614 | 19.17932 | 37125 ft | 466 kts | 90° |
| 2026-05-04 19:41 | 41.86976 | 19.26562 | 37129 ft | 465 kts | 90° |
| 2026-05-04 19:41 | 41.86337 | 19.35150 | 37130 ft | 464 kts | 90° |
| 2026-05-04 19:42 | 41.85691 | 19.43732 | 37135 ft | 464 kts | 89° |
| 2026-05-04 19:42 | 41.85041 | 19.52285 | 37135 ft | 464 kts | 89° |
| 2026-05-04 19:43 | 41.84382 | 19.60870 | 37141 ft | 464 kts | 89° |
| 2026-05-04 19:43 | 41.83720 | 19.69415 | 37146 ft | 463 kts | 90° |
| 2026-05-04 19:44 | 41.83050 | 19.77961 | 37141 ft | 462 kts | 90° |
| 2026-05-04 19:44 | 41.82374 | 19.86505 | 37152 ft | 461 kts | 90° |
| 2026-05-04 19:45 | 41.81696 | 19.94993 | 37150 ft | 461 kts | 90° |
| 2026-05-04 19:45 | 41.81007 | 20.03554 | 37152 ft | 461 kts | 90° |
| 2026-05-04 19:46 | 41.80315 | 20.12072 | 37151 ft | 462 kts | 90° |
| 2026-05-04 19:46 | 41.79619 | 20.20547 | 37147 ft | 461 kts | 90° |
| 2026-05-04 19:47 | 41.78914 | 20.29062 | 37141 ft | 460 kts | 90° |
| 2026-05-04 19:47 | 41.78203 | 20.37553 | 37128 ft | 460 kts | 90° |
| 2026-05-04 19:48 | 41.77499 | 20.45996 | 37126 ft | 458 kts | 88° |
| 2026-05-04 19:48 | 41.77241 | 20.54419 | 37127 ft | 451 kts | 82° |
| 2026-05-04 19:49 | 41.77700 | 20.62731 | 37123 ft | 446 kts | 76° |
| 2026-05-04 19:49 | 41.78475 | 20.70931 | 37121 ft | 445 kts | 76° |
| 2026-05-04 19:50 | 41.79252 | 20.79164 | 37120 ft | 446 kts | 76° |
| 2026-05-04 19:50 | 41.80014 | 20.87377 | 37125 ft | 447 kts | 76° |
| 2026-05-04 19:51 | 41.80768 | 20.95604 | 37117 ft | 446 kts | 76° |
| 2026-05-04 19:51 | 41.81514 | 21.03826 | 37110 ft | 445 kts | 76° |
| 2026-05-04 19:52 | 41.82251 | 21.12034 | 37112 ft | 444 kts | 76° |
| 2026-05-04 19:52 | 41.82978 | 21.20173 | 37130 ft | 443 kts | 76° |
| 2026-05-04 19:53 | 41.83705 | 21.28386 | 37135 ft | 444 kts | 76° |
| 2026-05-04 19:53 | 41.84424 | 21.36574 | 37113 ft | 445 kts | 76° |
| 2026-05-04 19:54 | 41.85139 | 21.44787 | 37114 ft | 445 kts | 76° |
| 2026-05-04 19:54 | 41.85847 | 21.53001 | 37098 ft | 445 kts | 76° |
| 2026-05-04 19:55 | 41.86548 | 21.61204 | 37107 ft | 443 kts | 76° |
| 2026-05-04 19:55 | 41.87243 | 21.69374 | 37123 ft | 443 kts | 77° |
| 2026-05-04 19:56 | 41.87936 | 21.77607 | 37150 ft | 443 kts | 77° |
| 2026-05-04 19:56 | 41.88618 | 21.85801 | 37134 ft | 444 kts | 77° |
| 2026-05-04 19:57 | 41.89295 | 21.93983 | 37148 ft | 445 kts | 77° |
| 2026-05-04 19:57 | 41.89974 | 22.02244 | 37157 ft | 446 kts | 77° |
| 2026-05-04 19:58 | 41.90641 | 22.10447 | 37151 ft | 445 kts | 77° |
| 2026-05-04 19:58 | 41.91307 | 22.18710 | 37144 ft | 444 kts | 77° |
| 2026-05-04 19:59 | 41.91956 | 22.26904 | 37158 ft | 442 kts | 77° |
| 2026-05-04 19:59 | 41.92605 | 22.35096 | 37141 ft | 443 kts | 77° |
| 2026-05-04 20:00 | 41.93248 | 22.43294 | 37129 ft | 443 kts | 77° |
| 2026-05-04 20:00 | 41.93885 | 22.51511 | 37111 ft | 444 kts | 78° |
| 2026-05-04 20:01 | 41.94513 | 22.59716 | 37106 ft | 442 kts | 77° |
| 2026-05-04 20:01 | 41.95135 | 22.67874 | 37111 ft | 442 kts | 78° |
| 2026-05-04 20:02 | 41.95751 | 22.76072 | 37128 ft | 441 kts | 78° |
| 2026-05-04 20:02 | 41.96355 | 22.84263 | 37136 ft | 442 kts | 79° |
| 2026-05-04 20:03 | 41.96534 | 22.92495 | 37121 ft | 446 kts | 86° |
| 2026-05-04 20:03 | 41.96288 | 23.00784 | 37126 ft | 446 kts | 87° |
| 2026-05-04 20:04 | 41.96016 | 23.09148 | 37119 ft | 450 kts | 87° |
| 2026-05-04 20:04 | 41.95740 | 23.17543 | 37102 ft | 454 kts | 87° |
| 2026-05-04 20:05 | 41.95457 | 23.26014 | 37101 ft | 457 kts | 87° |
| 2026-05-04 20:05 | 41.95165 | 23.34529 | 37093 ft | 459 kts | 87° |
| 2026-05-04 20:06 | 41.94867 | 23.43094 | 37066 ft | 461 kts | 88° |
| 2026-05-04 20:06 | 41.94560 | 23.51702 | 37064 ft | 461 kts | 88° |
| 2026-05-04 20:07 | 41.94250 | 23.60235 | 37062 ft | 461 kts | 88° |
| 2026-05-04 20:07 | 41.93931 | 23.68864 | 37048 ft | 461 kts | 89° |
| 2026-05-04 20:08 | 41.93610 | 23.77387 | 37053 ft | 462 kts | 89° |
| 2026-05-04 20:08 | 41.93276 | 23.86009 | 37052 ft | 462 kts | 89° |
| 2026-05-04 20:09 | 41.92938 | 23.94571 | 37067 ft | 462 kts | 89° |
| 2026-05-04 20:09 | 41.92593 | 24.03202 | 37087 ft | 463 kts | 89° |
| 2026-05-04 20:10 | 41.92244 | 24.11742 | 37058 ft | 462 kts | 89° |
| 2026-05-04 20:10 | 41.91889 | 24.20346 | 37076 ft | 462 kts | 89° |
| 2026-05-04 20:11 | 41.91522 | 24.28955 | 37057 ft | 462 kts | 89° |
| 2026-05-04 20:11 | 41.91155 | 24.37500 | 37068 ft | 462 kts | 89° |
| 2026-05-04 20:11 | 41.90966 | 24.41828 | 37212 ft | 462 kts | 89° |
| 2026-05-04 20:12 | 41.90780 | 24.46092 | 37120 ft | 462 kts | 90° |
| 2026-05-04 20:12 | 41.90396 | 24.54678 | 37081 ft | 461 kts | 89° |
| 2026-05-04 20:13 | 41.90008 | 24.63268 | 37068 ft | 461 kts | 90° |
| 2026-05-04 20:13 | 41.89614 | 24.71803 | 37072 ft | 461 kts | 90° |
| 2026-05-04 20:14 | 41.89214 | 24.80362 | 37070 ft | 461 kts | 91° |
| 2026-05-04 20:14 | 41.88806 | 24.88940 | 37075 ft | 461 kts | 91° |
| 2026-05-04 20:15 | 41.88394 | 24.97479 | 37086 ft | 461 kts | 91° |
| 2026-05-04 20:15 | 41.87974 | 25.06045 | 37091 ft | 462 kts | 91° |
| 2026-05-04 20:16 | 41.87544 | 25.14644 | 37098 ft | 462 kts | 91° |
| 2026-05-04 20:16 | 41.87110 | 25.23229 | 37100 ft | 461 kts | 91° |
| 2026-05-04 20:17 | 41.86672 | 25.31777 | 37108 ft | 459 kts | 91° |
| 2026-05-04 20:17 | 41.86228 | 25.40304 | 37111 ft | 459 kts | 91° |
| 2026-05-04 20:18 | 41.85787 | 25.48772 | 37110 ft | 459 kts | 91° |
| 2026-05-04 20:18 | 41.85340 | 25.57302 | 37109 ft | 459 kts | 91° |
| 2026-05-04 20:19 | 41.84869 | 25.65834 | 37118 ft | 459 kts | 92° |
| 2026-05-04 20:19 | 41.84397 | 25.74357 | 37114 ft | 459 kts | 92° |
| 2026-05-04 20:20 | 41.83919 | 25.82861 | 37108 ft | 457 kts | 92° |
| 2026-05-04 20:20 | 41.83682 | 25.87040 | 37102 ft | 445 kts | 92° |
| 2026-05-04 20:20 | 41.83448 | 25.91124 | 36883 ft | 436 kts | 92° |
| 2026-05-04 20:20 | 41.83221 | 25.95156 | 36435 ft | 434 kts | 93° |
| 2026-05-04 20:21 | 41.82995 | 25.99142 | 36052 ft | 429 kts | 93° |
| 2026-05-04 20:21 | 41.82770 | 26.03059 | 35762 ft | 423 kts | 93° |
| 2026-05-04 20:21 | 41.82318 | 26.10849 | 35077 ft | 415 kts | 94° |
| 2026-05-04 20:22 | 41.82094 | 26.14664 | 34671 ft | 413 kts | 94° |
| 2026-05-04 20:22 | 41.81867 | 26.18477 | 34220 ft | 410 kts | 94° |
| 2026-05-04 20:22 | 41.81639 | 26.22272 | 33752 ft | 408 kts | 95° |
| 2026-05-04 20:22 | 41.81412 | 26.26039 | 33254 ft | 405 kts | 95° |
| 2026-05-04 20:23 | 41.81187 | 26.29747 | 32719 ft | 403 kts | 95° |
| 2026-05-04 20:23 | 41.80835 | 26.33467 | 32142 ft | 401 kts | 99° |
| 2026-05-04 20:23 | 41.80280 | 26.37076 | 31553 ft | 400 kts | 103° |
| 2026-05-04 20:23 | 41.79522 | 26.40637 | 30985 ft | 397 kts | 106° |
| 2026-05-04 20:24 | 41.78609 | 26.44106 | 30526 ft | 392 kts | 108° |
| 2026-05-04 20:24 | 41.77697 | 26.47476 | 30015 ft | 388 kts | 108° |
| 2026-05-04 20:24 | 41.76776 | 26.50857 | 29401 ft | 386 kts | 107° |
| 2026-05-04 20:24 | 41.75795 | 26.54196 | 28742 ft | 387 kts | 110° |
| 2026-05-04 20:25 | 41.74638 | 26.57447 | 28085 ft | 387 kts | 114° |
| 2026-05-04 20:25 | 41.73329 | 26.60552 | 27471 ft | 388 kts | 118° |
| 2026-05-04 20:25 | 41.71883 | 26.63590 | 26840 ft | 387 kts | 118° |
| 2026-05-04 20:25 | 41.70565 | 26.66677 | 26221 ft | 386 kts | 116° |
| 2026-05-04 20:26 | 41.69284 | 26.69824 | 25811 ft | 385 kts | 115° |
| 2026-05-04 20:26 | 41.67998 | 26.72996 | 25490 ft | 388 kts | 116° |
| 2026-05-04 20:26 | 41.66716 | 26.76134 | 25211 ft | 388 kts | 116° |
| 2026-05-04 20:26 | 41.65410 | 26.79315 | 24973 ft | 390 kts | 116° |
| 2026-05-04 20:27 | 41.64108 | 26.82476 | 24711 ft | 390 kts | 116° |
| 2026-05-04 20:27 | 41.62800 | 26.85631 | 24451 ft | 390 kts | 116° |
| 2026-05-04 20:27 | 41.61479 | 26.88814 | 24188 ft | 390 kts | 116° |
| 2026-05-04 20:27 | 41.60164 | 26.91975 | 23927 ft | 390 kts | 116° |
| 2026-05-04 20:28 | 41.58844 | 26.95145 | 23664 ft | 390 kts | 116° |
| 2026-05-04 20:28 | 41.57543 | 26.98267 | 23411 ft | 389 kts | 116° |
| 2026-05-04 20:28 | 41.56230 | 27.01411 | 23157 ft | 388 kts | 116° |
| 2026-05-04 20:28 | 41.54907 | 27.04575 | 22901 ft | 387 kts | 116° |
| 2026-05-04 20:29 | 41.53601 | 27.07696 | 22692 ft | 386 kts | 116° |
| 2026-05-04 20:29 | 41.52296 | 27.10811 | 22487 ft | 385 kts | 116° |
| 2026-05-04 20:29 | 41.51006 | 27.13888 | 22282 ft | 384 kts | 116° |
| 2026-05-04 20:29 | 41.49704 | 27.16989 | 22075 ft | 383 kts | 116° |
| 2026-05-04 20:30 | 41.48403 | 27.20085 | 21871 ft | 382 kts | 115° |
| 2026-05-04 20:30 | 41.47102 | 27.23177 | 21666 ft | 381 kts | 115° |
| 2026-05-04 20:30 | 41.45808 | 27.26249 | 21462 ft | 380 kts | 115° |
| 2026-05-04 20:30 | 41.44519 | 27.29308 | 21258 ft | 378 kts | 115° |
| 2026-05-04 20:31 | 41.43236 | 27.32349 | 21056 ft | 378 kts | 115° |
| 2026-05-04 20:31 | 41.41965 | 27.35358 | 20855 ft | 377 kts | 115° |
| 2026-05-04 20:31 | 41.40677 | 27.38404 | 20646 ft | 376 kts | 115° |
| 2026-05-04 20:31 | 41.39400 | 27.41422 | 20447 ft | 375 kts | 115° |
| 2026-05-04 20:32 | 41.38114 | 27.44461 | 20210 ft | 374 kts | 115° |
| 2026-05-04 20:32 | 41.36852 | 27.47434 | 19960 ft | 373 kts | 115° |
| 2026-05-04 20:32 | 41.35577 | 27.50436 | 19706 ft | 372 kts | 115° |
| 2026-05-04 20:32 | 41.34304 | 27.53428 | 19455 ft | 370 kts | 114° |
| 2026-05-04 20:33 | 41.33035 | 27.56414 | 19199 ft | 369 kts | 114° |
| 2026-05-04 20:33 | 41.31784 | 27.59351 | 18954 ft | 368 kts | 114° |
| 2026-05-04 20:33 | 41.30524 | 27.62307 | 18698 ft | 368 kts | 114° |
| 2026-05-04 20:33 | 41.29256 | 27.65280 | 18450 ft | 367 kts | 114° |
| 2026-05-04 20:34 | 41.28006 | 27.68212 | 18207 ft | 366 kts | 115° |
| 2026-05-04 20:34 | 41.26748 | 27.71160 | 17954 ft | 365 kts | 115° |
| 2026-05-04 20:34 | 41.25509 | 27.74055 | 17712 ft | 364 kts | 115° |
| 2026-05-04 20:34 | 41.24257 | 27.76977 | 17465 ft | 363 kts | 115° |
| 2026-05-04 20:35 | 41.23018 | 27.79869 | 17215 ft | 362 kts | 115° |
| 2026-05-04 20:35 | 41.21764 | 27.82789 | 16964 ft | 361 kts | 114° |
| 2026-05-04 20:35 | 41.20521 | 27.85682 | 16714 ft | 360 kts | 114° |
| 2026-05-04 20:35 | 41.19292 | 27.88542 | 16467 ft | 359 kts | 114° |
| 2026-05-04 20:36 | 41.18054 | 27.91420 | 16214 ft | 358 kts | 114° |
| 2026-05-04 20:36 | 41.16820 | 27.94285 | 15895 ft | 357 kts | 114° |
| 2026-05-04 20:36 | 41.15596 | 27.97125 | 15471 ft | 355 kts | 114° |
| 2026-05-04 20:36 | 41.14373 | 27.99960 | 15047 ft | 353 kts | 114° |
| 2026-05-04 20:37 | 41.13152 | 28.02787 | 14621 ft | 352 kts | 114° |
| 2026-05-04 20:37 | 41.11954 | 28.05559 | 14201 ft | 350 kts | 114° |
| 2026-05-04 20:37 | 41.10739 | 28.08365 | 13751 ft | 348 kts | 114° |
| 2026-05-04 20:37 | 41.09537 | 28.11139 | 13301 ft | 347 kts | 114° |
| 2026-05-04 20:38 | 41.08354 | 28.13868 | 12850 ft | 340 kts | 114° |
| 2026-05-04 20:38 | 41.07191 | 28.16540 | 12395 ft | 327 kts | 114° |
| 2026-05-04 20:38 | 41.06086 | 28.19079 | 11941 ft | 315 kts | 114° |
| 2026-05-04 20:38 | 41.05016 | 28.21539 | 11489 ft | 305 kts | 114° |
| 2026-05-04 20:39 | 41.03973 | 28.23936 | 11028 ft | 295 kts | 114° |
| 2026-05-04 20:39 | 41.02965 | 28.26259 | 10581 ft | 294 kts | 114° |
| 2026-05-04 20:39 | 41.01943 | 28.28615 | 10124 ft | 294 kts | 114° |
| 2026-05-04 20:39 | 41.00935 | 28.30933 | 9673 ft | 295 kts | 114° |
| 2026-05-04 20:40 | 40.99900 | 28.33308 | 9214 ft | 296 kts | 114° |
| 2026-05-04 20:40 | 40.98865 | 28.35680 | 8758 ft | 297 kts | 114° |
| 2026-05-04 20:40 | 40.97871 | 28.38047 | 8295 ft | 295 kts | 108° |
| 2026-05-04 20:40 | 40.97316 | 28.40618 | 7839 ft | 287 kts | 93° |
| 2026-05-04 20:41 | 40.97066 | 28.43159 | 7404 ft | 276 kts | 90° |
| 2026-05-04 20:41 | 40.96858 | 28.45620 | 6970 ft | 266 kts | 90° |
| 2026-05-04 20:41 | 40.96650 | 28.48008 | 6609 ft | 253 kts | 91° |
| 2026-05-04 20:41 | 40.96444 | 28.50275 | 6349 ft | 242 kts | 91° |
| 2026-05-04 20:42 | 40.96242 | 28.52448 | 6068 ft | 238 kts | 91° |
| 2026-05-04 20:42 | 40.96080 | 28.54604 | 5779 ft | 233 kts | 86° |
| 2026-05-04 20:42 | 40.96050 | 28.56722 | 5497 ft | 229 kts | 84° |
| 2026-05-04 20:42 | 40.96046 | 28.58803 | 5219 ft | 226 kts | 83° |
| 2026-05-04 20:43 | 40.96043 | 28.60848 | 4942 ft | 223 kts | 83° |
| 2026-05-04 20:43 | 40.96040 | 28.62897 | 4659 ft | 221 kts | 83° |
| 2026-05-04 20:43 | 40.96036 | 28.64913 | 4376 ft | 218 kts | 83° |
| 2026-05-04 20:43 | 40.96077 | 28.66909 | 4088 ft | 212 kts | 73° |
| 2026-05-04 20:44 | 40.96674 | 28.68530 | 3960 ft | 188 kts | 42° |
| 2026-05-04 20:44 | 40.97663 | 28.69488 | 3940 ft | 169 kts | 26° |
| 2026-05-04 20:44 | 40.98684 | 28.70224 | 3945 ft | 166 kts | 26° |
| 2026-05-04 20:44 | 40.99698 | 28.70958 | 3950 ft | 165 kts | 26° |
| 2026-05-04 20:45 | 41.00708 | 28.71693 | 3995 ft | 165 kts | 27° |
| 2026-05-04 20:45 | 41.01760 | 28.72334 | 4024 ft | 165 kts | 20° |
| 2026-05-04 20:45 | 41.02853 | 28.72786 | 3980 ft | 164 kts | 13° |
| 2026-05-04 20:45 | 41.03983 | 28.73019 | 3967 ft | 164 kts | 7° |
| 2026-05-04 20:46 | 41.05113 | 28.73107 | 3958 ft | 164 kts | 4° |
| 2026-05-04 20:46 | 41.06273 | 28.73128 | 3957 ft | 164 kts | 2° |
| 2026-05-04 20:46 | 41.07417 | 28.73125 | 3952 ft | 164 kts | 1° |
| 2026-05-04 20:46 | 41.08533 | 28.73112 | 3791 ft | 154 kts | 1° |
| 2026-05-04 20:47 | 41.09551 | 28.73094 | 3619 ft | 137 kts | 1° |
| 2026-05-04 20:47 | 41.10452 | 28.73077 | 3401 ft | 123 kts | 1° |
| 2026-05-04 20:47 | 41.11279 | 28.73062 | 3220 ft | 118 kts | 1° |
| 2026-05-04 20:47 | 41.12110 | 28.73048 | 3071 ft | 117 kts | 1° |
| 2026-05-04 20:48 | 41.12920 | 28.73033 | 2932 ft | 116 kts | 1° |
| 2026-05-04 20:48 | 41.13733 | 28.73016 | 2784 ft | 116 kts | 1° |
| 2026-05-04 20:48 | 41.14539 | 28.73002 | 2632 ft | 116 kts | 360° |
| 2026-05-04 20:48 | 41.15341 | 28.72987 | 2489 ft | 115 kts | 0° |
| 2026-05-04 20:49 | 41.16144 | 28.72972 | 2328 ft | 115 kts | 0° |
| 2026-05-04 20:49 | 41.16949 | 28.72957 | 2170 ft | 115 kts | 360° |
| 2026-05-04 20:49 | 41.17745 | 28.72942 | 2014 ft | 115 kts | 359° |
| 2026-05-04 20:49 | 41.18547 | 28.72925 | 1856 ft | 115 kts | 359° |
| 2026-05-04 20:50 | 41.19347 | 28.72910 | 1689 ft | 114 kts | 359° |
| 2026-05-04 20:50 | 41.20146 | 28.72894 | 1538 ft | 115 kts | 359° |
| 2026-05-04 20:50 | 41.20948 | 28.72880 | 1387 ft | 116 kts | 358° |
| 2026-05-04 20:50 | 41.21744 | 28.72864 | 1233 ft | 116 kts | 358° |
| 2026-05-04 20:51 | 41.22564 | 28.72849 | 1071 ft | 116 kts | 358° |
| 2026-05-04 20:51 | 41.23371 | 28.72834 | 915 ft | 117 kts | 358° |
| 2026-05-04 20:51 | 41.24185 | 28.72820 | 751 ft | 118 kts | 357° |
| 2026-05-04 20:51 | 41.25011 | 28.72810 | 593 ft | 119 kts | 357° |
| 2026-05-04 20:52 | 41.25843 | 28.72785 | 448 ft | 119 kts | 356° |
| 2026-05-04 20:52 | 41.26681 | 28.72775 | 353 ft | 120 kts | 357° |
| 2026-05-04 20:52 | 41.27388 | 28.72748 | 334 ft | 64 kts | 359° |
| 2026-05-04 20:52 | 41.27747 | 28.72737 | 334 ft | 40 kts | 358° |
| 2026-05-04 20:53 | 41.27959 | 28.72777 | 334 ft | 24 kts | 16° |
| 2026-05-04 20:53 | 41.28084 | 28.72852 | 334 ft | 17 kts | 37° |
| 2026-05-04 20:53 | 41.28112 | 28.72944 | 334 ft | 10 kts | 136° |
| 2026-05-04 20:53 | 41.28053 | 28.72965 | 334 ft | 0 kts | 179° |
| 2026-05-04 20:55 | 41.28048 | 28.72965 | 334 ft | 2 kts | 179° |
| 2026-05-04 20:55 | 41.28025 | 28.72966 | 334 ft | 4 kts | 179° |
| 2026-05-04 20:55 | 41.27986 | 28.72966 | 334 ft | 6 kts | 180° |
| 2026-05-04 20:56 | 41.27934 | 28.72967 | 334 ft | 8 kts | 180° |
| 2026-05-04 20:56 | 41.27871 | 28.72968 | 334 ft | 9 kts | 179° |
| 2026-05-04 20:56 | 41.27798 | 28.72970 | 334 ft | 11 kts | 179° |
| 2026-05-04 20:56 | 41.27714 | 28.72973 | 334 ft | 12 kts | 180° |
| 2026-05-04 20:57 | 41.27625 | 28.72974 | 334 ft | 13 kts | 178° |
| 2026-05-04 20:57 | 41.27527 | 28.72977 | 334 ft | 14 kts | 179° |
| 2026-05-04 20:57 | 41.27427 | 28.72978 | 334 ft | 14 kts | 178° |
| 2026-05-04 20:57 | 41.27320 | 28.72980 | 334 ft | 15 kts | 180° |
| 2026-05-04 20:58 | 41.27211 | 28.72983 | 334 ft | 15 kts | 179° |
| 2026-05-04 20:58 | 41.27101 | 28.72984 | 334 ft | 16 kts | 179° |
| 2026-05-04 20:58 | 41.26989 | 28.72986 | 334 ft | 16 kts | 176° |
| 2026-05-04 20:58 | 41.26943 | 28.73057 | 334 ft | 11 kts | 91° |
| 2026-05-04 20:59 | 41.26944 | 28.73162 | 334 ft | 11 kts | 89° |
| 2026-05-04 20:59 | 41.26947 | 28.73266 | 334 ft | 11 kts | 88° |
| 2026-05-04 20:59 | 41.26948 | 28.73369 | 334 ft | 11 kts | 90° |
| 2026-05-04 20:59 | 41.26949 | 28.73472 | 334 ft | 11 kts | 89° |
| 2026-05-04 21:00 | 41.26950 | 28.73575 | 334 ft | 11 kts | 89° |
| 2026-05-04 21:00 | 41.26951 | 28.73677 | 334 ft | 11 kts | 89° |
| 2026-05-04 21:00 | 41.26952 | 28.73780 | 334 ft | 11 kts | 89° |
| 2026-05-04 21:00 | 41.26953 | 28.73883 | 334 ft | 11 kts | 89° |
| 2026-05-04 21:01 | 41.26955 | 28.73986 | 334 ft | 11 kts | 89° |
| 2026-05-04 21:01 | 41.26957 | 28.74090 | 334 ft | 11 kts | 89° |
| 2026-05-04 21:01 | 41.26958 | 28.74192 | 334 ft | 11 kts | 90° |
| 2026-05-04 21:01 | 41.26958 | 28.74296 | 334 ft | 11 kts | 90° |
| 2026-05-04 21:02 | 41.26958 | 28.74399 | 334 ft | 11 kts | 89° |
| 2026-05-04 21:02 | 41.26960 | 28.74503 | 334 ft | 11 kts | 89° |
| 2026-05-04 21:02 | 41.26937 | 28.74597 | 334 ft | 11 kts | 143° |
| 2026-05-04 21:02 | 41.26858 | 28.74608 | 334 ft | 12 kts | 180° |
| 2026-05-04 21:03 | 41.26772 | 28.74608 | 334 ft | 13 kts | 181° |
| 2026-05-04 21:03 | 41.26696 | 28.74652 | 334 ft | 11 kts | 108° |
| 2026-05-04 21:03 | 41.26700 | 28.74723 | 334 ft | 4 kts | 88° |
| 2026-05-04 21:03 | 41.26700 | 28.74733 | 334 ft | 0 kts | 88° |